createdAt,value
2023-05-10T00:03:51.310Z,70.61
2023-05-10T00:07:54.250Z,67.98
2023-05-10T00:11:55.776Z,66.04
2023-05-10T00:15:57.348Z,67.40
2023-05-10T00:19:58.921Z,68.43
2023-05-10T00:24:01.834Z,67.97
2023-05-10T00:28:03.553Z,68.53
2023-05-10T00:32:05.579Z,69.81
2023-05-10T00:36:08.014Z,70.29
2023-05-10T00:40:12.081Z,71.03
2023-05-10T00:44:13.632Z,70.89
2023-05-10T00:48:15.304Z,74.34
2023-05-10T00:52:16.947Z,74.23
2023-05-10T00:56:20.056Z,75.44
2023-05-10T01:00:21.474Z,76.05
2023-05-10T01:04:23.031Z,76.96
2023-05-10T01:08:24.977Z,77.00
2023-05-10T01:12:27.991Z,77.41
2023-05-10T01:16:33.291Z,76.26
2023-05-10T01:20:41.488Z,77.06
2023-05-10T01:25:23.595Z,72.88
2023-05-10T01:29:48.976Z,74.47
2023-05-10T01:33:58.639Z,72.37
2023-05-10T01:38:08.814Z,72.69
2023-05-10T01:42:13.817Z,71.88
2023-05-10T01:46:18.655Z,70.61
2023-05-10T01:50:28.133Z,71.70
2023-05-10T01:54:30.566Z,69.36
2023-05-10T01:58:34.614Z,69.36
2023-05-10T02:02:38.626Z,67.48
2023-05-10T02:06:43.432Z,67.60
2023-05-10T02:10:46.826Z,67.38
2023-05-10T02:14:48.662Z,66.67
2023-05-10T02:18:52.572Z,67.13
2023-05-10T02:22:56.940Z,66.66
2023-05-10T02:26:59.513Z,66.65
2023-05-10T02:31:01.871Z,68.86
2023-05-10T02:35:04.680Z,70.77
2023-05-10T02:39:08.719Z,74.52
2023-05-10T02:43:13.816Z,74.40
2023-05-10T02:47:15.513Z,74.28
2023-05-10T02:51:19.138Z,74.67
2023-05-10T02:55:26.559Z,77.44
2023-05-10T02:59:28.536Z,79.84
2023-05-10T03:03:30.107Z,80.39
2023-05-10T03:07:31.871Z,81.90
2023-05-10T03:11:44.093Z,82.40
2023-05-10T03:15:55.551Z,80.43
2023-05-10T03:19:58.714Z,79.36
2023-05-10T03:24:06.305Z,79.15
2023-05-10T03:28:09.938Z,81.76
2023-05-10T03:32:11.508Z,86.11
2023-05-10T03:36:13.014Z,88.42
2023-05-10T03:40:14.833Z,90.55
2023-05-10T03:44:17.811Z,93.77
2023-05-10T03:48:19.323Z,95.66
2023-05-10T03:52:20.822Z,95.51
2023-05-10T03:56:22.348Z,97.58
2023-05-10T04:00:25.679Z,97.78
2023-05-10T04:04:27.297Z,98.53
2023-05-10T04:08:29.036Z,99.57
2023-05-10T04:12:30.541Z,98.82
2023-05-10T04:16:33.411Z,98.95
2023-05-10T04:20:34.983Z,99.14
2023-05-10T04:24:36.479Z,98.76
2023-05-10T04:28:37.965Z,97.80
2023-05-10T04:32:40.909Z,96.60
2023-05-10T04:36:42.439Z,96.70
2023-05-10T04:40:43.990Z,96.24
2023-05-10T04:44:45.494Z,96.53
2023-05-10T04:48:48.575Z,95.68
2023-05-10T04:52:49.906Z,96.07
2023-05-10T04:56:51.422Z,96.13
2023-05-10T05:00:52.962Z,95.28
2023-05-10T05:04:56.701Z,94.88
2023-05-10T05:08:58.208Z,97.39
2023-05-10T05:12:59.754Z,98.63
2023-05-10T05:17:01.492Z,98.83
2023-05-10T05:21:04.360Z,98.04
2023-05-10T05:25:06.953Z,97.59
2023-05-10T05:29:08.454Z,97.96
2023-05-10T05:33:10.390Z,98.67
2023-05-10T05:37:15.041Z,98.25
2023-05-10T05:41:16.625Z,97.63
2023-05-10T05:45:18.554Z,98.91
2023-05-10T05:49:20.281Z,97.57
2023-05-10T05:53:23.287Z,99.05
2023-05-10T05:57:24.801Z,99.25
2023-05-10T06:01:26.358Z,99.90
2023-05-10T06:05:27.886Z,100.00
2023-05-10T06:09:30.734Z,100.00
2023-05-10T06:13:32.335Z,99.68
2023-05-10T06:17:33.992Z,97.65
2023-05-10T06:21:35.527Z,99.71
2023-05-10T06:25:38.396Z,99.50
2023-05-10T06:29:39.922Z,98.06
2023-05-10T06:33:41.446Z,98.36
2023-05-10T06:37:42.966Z,97.56
2023-05-10T06:41:45.818Z,99.29
2023-05-10T06:45:48.494Z,98.68
2023-05-10T06:49:50.030Z,99.91
2023-05-10T06:53:51.562Z,98.09
2023-05-10T06:57:54.531Z,96.65
2023-05-10T07:01:56.027Z,94.57
2023-05-10T07:06:01.611Z,93.25
2023-05-10T07:10:03.365Z,94.03
2023-05-10T07:14:06.233Z,95.17
2023-05-10T07:18:07.879Z,93.57
2023-05-10T07:22:09.488Z,93.52
2023-05-10T07:26:10.988Z,93.24
2023-05-10T07:30:14.586Z,94.65
2023-05-10T07:34:16.137Z,94.32
2023-05-10T07:38:17.621Z,95.17
2023-05-10T07:42:19.536Z,95.35
2023-05-10T07:46:22.439Z,95.35
2023-05-10T07:50:24.035Z,95.08
2023-05-10T07:54:25.616Z,94.03
2023-05-10T07:58:27.699Z,91.66
2023-05-10T08:02:30.717Z,90.39
2023-05-10T08:06:32.139Z,87.88
2023-05-10T08:10:33.716Z,87.45
2023-05-10T08:14:35.278Z,85.77
2023-05-10T08:18:38.326Z,85.73
2023-05-10T08:22:39.672Z,83.06
2023-05-10T08:26:41.363Z,80.64
2023-05-10T08:30:42.866Z,82.94
2023-05-10T08:34:45.726Z,82.08
2023-05-10T08:38:47.229Z,85.11
2023-05-10T08:42:55.184Z,85.99
2023-05-10T08:46:58.332Z,89.20
2023-05-10T08:51:01.323Z,89.83
2023-05-10T08:55:02.955Z,87.78
2023-05-10T08:59:04.518Z,87.14
2023-05-10T09:03:06.732Z,83.54
2023-05-10T09:07:09.593Z,87.32
2023-05-10T09:11:12.700Z,84.59
2023-05-10T09:15:16.490Z,82.80
2023-05-10T09:19:18.548Z,85.15
2023-05-10T09:23:21.423Z,86.38
2023-05-10T09:27:27.857Z,89.03
2023-05-10T09:31:46.436Z,88.48
2023-05-10T09:35:48.161Z,84.31
2023-05-10T09:39:55.415Z,82.82
2023-05-10T09:43:57.196Z,82.94
2023-05-10T09:47:59.860Z,81.11
2023-05-10T09:52:02.806Z,83.29
2023-05-10T09:56:05.928Z,79.11
2023-05-10T10:00:07.903Z,83.12
2023-05-10T10:04:10.587Z,81.14
2023-05-10T10:08:13.396Z,81.14
2023-05-10T10:12:16.278Z,77.67
2023-05-10T10:16:17.777Z,74.32
2023-05-10T10:20:20.871Z,76.73
2023-05-10T10:24:22.388Z,75.32
2023-05-10T10:28:36.952Z,72.92
2023-05-10T10:32:55.411Z,72.88
2023-05-10T10:36:58.041Z,68.86
2023-05-10T10:41:04.044Z,68.05
2023-05-10T10:45:16.400Z,68.80
2023-05-10T10:49:18.114Z,69.47
2023-05-10T10:53:19.680Z,65.54
2023-05-10T10:57:21.274Z,68.49
2023-05-10T11:01:24.151Z,68.45
2023-05-10T11:05:34.951Z,64.00
2023-05-10T11:09:40.727Z,61.23
2023-05-10T11:13:43.950Z,60.70
2023-05-10T11:17:48.676Z,62.71
2023-05-10T11:21:52.092Z,63.33
2023-05-10T11:25:53.676Z,62.28
2023-05-10T11:29:55.190Z,65.69
2023-05-10T11:33:59.827Z,65.70
2023-05-10T11:38:01.326Z,65.05
2023-05-10T11:42:03.022Z,66.92
2023-05-10T11:46:05.278Z,69.42
2023-05-10T11:50:09.345Z,73.03
2023-05-10T11:54:12.343Z,70.70
2023-05-10T11:58:13.711Z,77.44
2023-05-10T12:02:15.375Z,78.44
2023-05-10T12:06:19.005Z,78.47
2023-05-10T12:10:27.225Z,80.51
2023-05-10T12:14:28.719Z,81.04
2023-05-10T12:18:30.230Z,82.19
2023-05-10T12:22:34.601Z,82.02
2023-05-10T12:26:36.212Z,88.99
2023-05-10T12:30:38.315Z,92.27
2023-05-10T12:34:39.883Z,94.88
2023-05-10T12:38:44.460Z,94.49
2023-05-10T12:42:46.053Z,95.75
2023-05-10T12:46:47.560Z,97.20
2023-05-10T12:50:49.109Z,94.15
2023-05-10T12:54:51.976Z,91.74
2023-05-10T12:58:53.454Z,89.84
2023-05-10T13:02:55.040Z,88.07
2023-05-10T13:06:56.609Z,88.08
2023-05-10T13:10:59.678Z,89.56
2023-05-10T13:15:01.002Z,91.41
2023-05-10T13:19:02.608Z,91.11
2023-05-10T13:23:04.233Z,90.87
2023-05-10T13:27:07.526Z,90.09
2023-05-10T13:31:09.079Z,89.83
2023-05-10T13:35:10.646Z,89.05
2023-05-10T13:39:12.164Z,89.40
2023-05-10T13:43:15.026Z,88.02
2023-05-10T13:47:16.644Z,85.06
2023-05-10T13:51:18.137Z,85.83
2023-05-10T13:55:19.933Z,86.10
2023-05-10T13:59:23.007Z,84.61
2023-05-10T14:03:24.537Z,87.32
2023-05-10T14:07:26.044Z,83.71
2023-05-10T14:11:27.524Z,84.40
2023-05-10T14:15:30.347Z,86.59
2023-05-10T14:19:31.858Z,87.84
2023-05-10T14:23:33.369Z,86.05
2023-05-10T14:27:34.846Z,88.44
2023-05-10T14:31:37.685Z,86.62
2023-05-10T14:35:39.179Z,83.43
2023-05-10T14:39:40.668Z,82.39
2023-05-10T14:43:42.246Z,82.50
2023-05-10T14:47:45.075Z,87.72
2023-05-10T14:51:46.585Z,88.28
2023-05-10T14:55:48.092Z,87.79
2023-05-10T14:59:49.576Z,88.78
2023-05-10T15:03:52.957Z,89.42
2023-05-10T15:07:55.003Z,88.16
2023-05-10T15:11:56.631Z,89.18
2023-05-10T15:15:59.292Z,93.66
2023-05-10T15:20:02.374Z,88.51
2023-05-10T15:24:03.907Z,91.16
2023-05-10T15:28:05.909Z,88.86
2023-05-10T15:32:07.415Z,90.01
2023-05-10T15:36:10.631Z,88.26
2023-05-10T15:40:12.638Z,87.03
2023-05-10T15:44:14.204Z,87.95
2023-05-10T15:48:15.701Z,87.15
2023-05-10T15:52:18.537Z,87.80
2023-05-10T15:56:20.058Z,86.96
2023-05-10T16:00:21.585Z,87.68
2023-05-10T16:04:23.368Z,87.12
2023-05-10T16:08:26.217Z,89.13
2023-05-10T16:12:28.241Z,91.43
2023-05-10T16:16:29.795Z,91.86
2023-05-10T16:20:32.602Z,95.09
2023-05-10T16:24:35.436Z,96.50
2023-05-10T16:28:36.928Z,94.68
2023-05-10T16:32:38.457Z,93.62
2023-05-10T16:36:39.998Z,95.54
2023-05-10T16:40:42.836Z,95.65
2023-05-10T16:44:44.341Z,95.51
2023-05-10T16:48:46.025Z,96.50
2023-05-10T16:52:47.646Z,95.08
2023-05-10T16:56:50.511Z,95.89
2023-05-10T17:00:52.046Z,95.32
2023-05-10T17:04:53.958Z,95.74
2023-05-10T17:08:55.438Z,95.19
2023-05-10T17:12:58.259Z,95.13
2023-05-10T17:16:59.869Z,96.51
2023-05-10T17:21:01.442Z,96.31
2023-05-10T17:25:03.132Z,95.37
2023-05-10T17:29:05.977Z,95.96
2023-05-10T17:33:07.503Z,96.51
2023-05-10T17:37:10.172Z,96.34
2023-05-10T17:41:11.681Z,96.08
2023-05-10T17:45:15.021Z,96.68
2023-05-10T17:49:16.627Z,96.78
2023-05-10T17:53:18.230Z,96.92
2023-05-10T17:57:19.721Z,97.33
2023-05-10T18:01:22.622Z,100.00
2023-05-10T18:05:24.500Z,100.00
2023-05-10T18:09:26.438Z,100.00
2023-05-10T18:13:28.012Z,100.00
2023-05-10T18:17:30.873Z,100.00
2023-05-10T18:21:32.476Z,100.00
2023-05-10T18:25:34.015Z,100.00
2023-05-10T18:29:35.587Z,100.00
2023-05-10T18:33:38.445Z,100.00
2023-05-10T18:37:40.249Z,100.00
2023-05-10T18:41:41.783Z,100.00
2023-05-10T18:45:43.286Z,100.00
2023-05-10T18:49:46.176Z,100.00
2023-05-10T18:53:47.758Z,100.00
2023-05-10T18:57:49.230Z,100.00
2023-05-10T19:01:51.419Z,100.00
2023-05-10T19:05:54.559Z,100.00
2023-05-10T19:09:56.048Z,100.00
2023-05-10T19:13:57.702Z,100.00
2023-05-10T19:17:59.278Z,100.00
2023-05-10T19:22:02.460Z,100.00
2023-05-10T19:26:03.972Z,100.00
2023-05-10T19:30:07.028Z,100.00
2023-05-10T19:34:08.527Z,100.00
2023-05-10T19:38:11.468Z,100.00
2023-05-10T19:42:12.976Z,100.00
2023-05-10T19:46:17.143Z,100.00
2023-05-10T19:50:19.420Z,100.00
2023-05-10T19:54:22.287Z,100.00
2023-05-10T19:58:23.950Z,100.00
2023-05-10T20:02:25.462Z,100.00
2023-05-10T20:06:26.989Z,100.00
2023-05-10T20:10:30.060Z,100.00
2023-05-10T20:14:31.534Z,100.00
2023-05-10T20:18:33.040Z,100.00
2023-05-10T20:22:34.511Z,100.00
2023-05-10T20:26:37.351Z,100.00
2023-05-10T20:30:39.148Z,100.00
2023-05-10T20:34:40.650Z,100.00
2023-05-10T20:38:42.232Z,100.00
2023-05-10T20:42:45.042Z,100.00
2023-05-10T20:46:46.599Z,100.00
2023-05-10T20:50:48.096Z,100.00
2023-05-10T20:54:49.570Z,100.00
2023-05-10T20:58:52.405Z,100.00
2023-05-10T21:02:53.923Z,99.88
2023-05-10T21:06:55.441Z,100.00
2023-05-10T21:10:56.942Z,100.00
2023-05-10T21:14:59.782Z,100.00
2023-05-10T21:19:01.293Z,100.00
2023-05-10T21:23:02.799Z,100.00
2023-05-10T21:27:04.317Z,100.00
2023-05-10T21:31:07.163Z,100.00
2023-05-10T21:35:09.073Z,100.00
2023-05-10T21:39:10.961Z,100.00
2023-05-10T21:43:12.498Z,100.00
2023-05-10T21:47:15.343Z,100.00
2023-05-10T21:51:16.868Z,100.00
2023-05-10T21:55:18.481Z,100.00
2023-05-10T21:59:20.024Z,100.00
2023-05-10T22:03:23.002Z,100.00
2023-05-10T22:07:24.532Z,100.00
2023-05-10T22:11:26.064Z,100.00
2023-05-10T22:15:27.574Z,100.00
2023-05-10T22:19:30.405Z,100.00
2023-05-10T22:23:31.877Z,100.00
2023-05-10T22:27:33.407Z,100.00
2023-05-10T22:31:34.955Z,100.00
2023-05-10T22:35:37.857Z,100.00
2023-05-10T22:39:39.328Z,100.00
2023-05-10T22:43:40.810Z,100.00
2023-05-10T22:47:42.297Z,100.00
2023-05-10T22:51:45.157Z,100.00
2023-05-10T22:55:46.715Z,100.00
2023-05-10T22:59:48.378Z,100.00
2023-05-10T23:03:50.239Z,100.00
2023-05-10T23:07:53.121Z,100.00
2023-05-10T23:11:54.652Z,100.00
2023-05-10T23:15:56.340Z,100.00
2023-05-10T23:19:58.073Z,100.00
2023-05-10T23:24:00.951Z,100.00
2023-05-10T23:28:02.543Z,100.00
2023-05-10T23:32:04.352Z,100.00
2023-05-10T23:36:06.215Z,100.00
2023-05-10T23:40:10.449Z,100.00
2023-05-10T23:44:11.942Z,100.00
2023-05-10T23:48:13.429Z,100.00
2023-05-10T23:52:14.911Z,100.00
2023-05-10T23:56:17.741Z,100.00
